sensor_id;sensor_type;location;lat;lon;timestamp;temperature;humidity
9157;DHT22;4613;48.392;9.998;2023-06-04T00:01:33;17.30;84.60
9157;DHT22;4613;48.392;9.998;2023-06-04T00:04:25;17.30;84.20
9157;DHT22;4613;48.392;9.998;2023-06-04T00:07:15;17.40;83.80
9157;DHT22;4613;48.392;9.998;2023-06-04T00:10:05;17.30;83.40
9157;DHT22;4613;48.392;9.998;2023-06-04T00:12:54;17.30;83.20
9157;DHT22;4613;48.392;9.998;2023-06-04T00:15:43;17.30;83.20
9157;DHT22;4613;48.392;9.998;2023-06-04T00:18:32;17.40;83.00
9157;DHT22;4613;48.392;9.998;2023-06-04T00:21:21;17.20;82.80
9157;DHT22;4613;48.392;9.998;2023-06-04T00:24:11;17.20;82.70
9157;DHT22;4613;48.392;9.998;2023-06-04T00:27:01;17.20;82.40
9157;DHT22;4613;48.392;9.998;2023-06-04T00:29:50;17.00;82.40
9157;DHT22;4613;48.392;9.998;2023-06-04T00:32:39;17.00;82.30
9157;DHT22;4613;48.392;9.998;2023-06-04T00:35:32;17.00;81.70
9157;DHT22;4613;48.392;9.998;2023-06-04T00:38:21;17.00;81.40
9157;DHT22;4613;48.392;9.998;2023-06-04T00:41:10;16.90;81.10
9157;DHT22;4613;48.392;9.998;2023-06-04T00:44:00;16.80;81.40
9157;DHT22;4613;48.392;9.998;2023-06-04T00:46:51;16.70;81.00
9157;DHT22;4613;48.392;9.998;2023-06-04T00:49:43;16.70;81.00
9157;DHT22;4613;48.392;9.998;2023-06-04T00:52:32;16.70;81.00
9157;DHT22;4613;48.392;9.998;2023-06-04T00:55:22;16.70;80.70
9157;DHT22;4613;48.392;9.998;2023-06-04T00:58:12;16.60;80.70
9157;DHT22;4613;48.392;9.998;2023-06-04T01:01:07;16.50;80.80
9157;DHT22;4613;48.392;9.998;2023-06-04T01:04:00;16.50;80.80
9157;DHT22;4613;48.392;9.998;2023-06-04T01:06:53;16.50;80.70
9157;DHT22;4613;48.392;9.998;2023-06-04T01:09:44;16.40;80.50
9157;DHT22;4613;48.392;9.998;2023-06-04T01:12:34;16.50;80.50
9157;DHT22;4613;48.392;9.998;2023-06-04T01:15:24;16.60;80.50
9157;DHT22;4613;48.392;9.998;2023-06-04T01:18:23;16.50;80.00
9157;DHT22;4613;48.392;9.998;2023-06-04T01:21:18;16.50;80.40
9157;DHT22;4613;48.392;9.998;2023-06-04T01:24:08;16.50;79.90
9157;DHT22;4613;48.392;9.998;2023-06-04T01:26:57;16.40;79.80
9157;DHT22;4613;48.392;9.998;2023-06-04T01:29:46;16.50;79.80
9157;DHT22;4613;48.392;9.998;2023-06-04T01:32:38;16.40;79.60
9157;DHT22;4613;48.392;9.998;2023-06-04T01:35:28;16.50;79.90
9157;DHT22;4613;48.392;9.998;2023-06-04T01:38:20;16.50;79.70
9157;DHT22;4613;48.392;9.998;2023-06-04T01:41:09;16.50;79.30
9157;DHT22;4613;48.392;9.998;2023-06-04T01:43:58;16.40;79.30
9157;DHT22;4613;48.392;9.998;2023-06-04T01:46:48;16.30;79.20
9157;DHT22;4613;48.392;9.998;2023-06-04T01:49:37;16.20;79.40
9157;DHT22;4613;48.392;9.998;2023-06-04T01:52:26;16.20;79.50
9157;DHT22;4613;48.392;9.998;2023-06-04T01:55:16;16.20;79.40
9157;DHT22;4613;48.392;9.998;2023-06-04T01:58:07;16.40;79.40
9157;DHT22;4613;48.392;9.998;2023-06-04T02:00:58;16.30;79.00
9157;DHT22;4613;48.392;9.998;2023-06-04T02:03:49;16.30;78.90
9157;DHT22;4613;48.392;9.998;2023-06-04T02:06:40;16.10;78.80
9157;DHT22;4613;48.392;9.998;2023-06-04T02:09:29;16.20;78.90
9157;DHT22;4613;48.392;9.998;2023-06-04T02:12:18;16.10;78.80
9157;DHT22;4613;48.392;9.998;2023-06-04T02:15:10;16.20;79.40
9157;DHT22;4613;48.392;9.998;2023-06-04T02:18:18;16.30;78.70
9157;DHT22;4613;48.392;9.998;2023-06-04T02:21:10;16.00;78.30
9157;DHT22;4613;48.392;9.998;2023-06-04T02:24:01;16.00;78.90
9157;DHT22;4613;48.392;9.998;2023-06-04T02:26:50;16.10;78.70
9157;DHT22;4613;48.392;9.998;2023-06-04T02:29:40;15.90;78.30
9157;DHT22;4613;48.392;9.998;2023-06-04T02:32:29;16.00;78.60
9157;DHT22;4613;48.392;9.998;2023-06-04T02:35:20;16.00;78.30
9157;DHT22;4613;48.392;9.998;2023-06-04T02:38:13;16.00;78.40
9157;DHT22;4613;48.392;9.998;2023-06-04T02:41:02;15.90;78.30
9157;DHT22;4613;48.392;9.998;2023-06-04T02:43:52;15.90;78.40
9157;DHT22;4613;48.392;9.998;2023-06-04T02:46:41;16.00;78.30
9157;DHT22;4613;48.392;9.998;2023-06-04T02:49:30;15.90;78.10
9157;DHT22;4613;48.392;9.998;2023-06-04T02:52:20;15.80;78.20
9157;DHT22;4613;48.392;9.998;2023-06-04T02:55:12;15.90;78.50
9157;DHT22;4613;48.392;9.998;2023-06-04T02:58:01;16.00;78.20
9157;DHT22;4613;48.392;9.998;2023-06-04T03:00:52;16.10;78.00
9157;DHT22;4613;48.392;9.998;2023-06-04T03:03:41;16.10;78.00
9157;DHT22;4613;48.392;9.998;2023-06-04T03:06:34;16.20;78.00
9157;DHT22;4613;48.392;9.998;2023-06-04T03:09:23;16.10;77.80
9157;DHT22;4613;48.392;9.998;2023-06-04T03:12:13;16.00;77.80
9157;DHT22;4613;48.392;9.998;2023-06-04T03:15:03;15.90;78.40
9157;DHT22;4613;48.392;9.998;2023-06-04T03:17:53;15.90;78.20
9157;DHT22;4613;48.392;9.998;2023-06-04T03:20:42;15.70;78.40
9157;DHT22;4613;48.392;9.998;2023-06-04T03:23:33;15.60;78.10
9157;DHT22;4613;48.392;9.998;2023-06-04T03:26:23;15.70;78.40
9157;DHT22;4613;48.392;9.998;2023-06-04T03:29:12;15.90;77.70
9157;DHT22;4613;48.392;9.998;2023-06-04T03:32:03;15.80;78.80
9157;DHT22;4613;48.392;9.998;2023-06-04T03:34:53;15.80;78.50
9157;DHT22;4613;48.392;9.998;2023-06-04T03:37:43;15.80;79.00
9157;DHT22;4613;48.392;9.998;2023-06-04T03:40:33;15.80;79.30
9157;DHT22;4613;48.392;9.998;2023-06-04T03:43:23;15.80;79.10
9157;DHT22;4613;48.392;9.998;2023-06-04T03:46:16;15.90;78.60
9157;DHT22;4613;48.392;9.998;2023-06-04T03:49:05;15.80;78.60
9157;DHT22;4613;48.392;9.998;2023-06-04T03:51:54;15.70;79.10
9157;DHT22;4613;48.392;9.998;2023-06-04T03:54:44;15.80;78.70
9157;DHT22;4613;48.392;9.998;2023-06-04T03:57:34;15.90;78.50
9157;DHT22;4613;48.392;9.998;2023-06-04T04:00:26;15.80;78.90
9157;DHT22;4613;48.392;9.998;2023-06-04T04:03:18;15.80;78.80
9157;DHT22;4613;48.392;9.998;2023-06-04T04:06:09;15.80;78.90
9157;DHT22;4613;48.392;9.998;2023-06-04T04:09:01;15.80;79.10
9157;DHT22;4613;48.392;9.998;2023-06-04T04:11:51;15.90;79.20
9157;DHT22;4613;48.392;9.998;2023-06-04T04:14:40;16.00;78.70
9157;DHT22;4613;48.392;9.998;2023-06-04T04:17:30;16.10;79.00
9157;DHT22;4613;48.392;9.998;2023-06-04T04:20:20;15.90;78.70
9157;DHT22;4613;48.392;9.998;2023-06-04T04:23:15;16.00;78.50
9157;DHT22;4613;48.392;9.998;2023-06-04T04:26:08;16.20;78.60
9157;DHT22;4613;48.392;9.998;2023-06-04T04:28:59;16.10;78.80
9157;DHT22;4613;48.392;9.998;2023-06-04T04:31:53;16.20;78.70
9157;DHT22;4613;48.392;9.998;2023-06-04T04:34:53;16.30;79.40
9157;DHT22;4613;48.392;9.998;2023-06-04T04:37:46;16.20;78.40
9157;DHT22;4613;48.392;9.998;2023-06-04T04:40:38;16.30;78.70
9157;DHT22;4613;48.392;9.998;2023-06-04T04:43:35;16.40;79.00
9157;DHT22;4613;48.392;9.998;2023-06-04T04:46:45;16.50;78.60
9157;DHT22;4613;48.392;9.998;2023-06-04T04:49:34;16.40;78.50
9157;DHT22;4613;48.392;9.998;2023-06-04T04:52:24;16.40;78.60
9157;DHT22;4613;48.392;9.998;2023-06-04T04:55:13;16.40;78.80
9157;DHT22;4613;48.392;9.998;2023-06-04T04:58:04;16.50;78.90
9157;DHT22;4613;48.392;9.998;2023-06-04T05:00:54;16.60;78.80
9157;DHT22;4613;48.392;9.998;2023-06-04T05:03:44;16.70;78.90
9157;DHT22;4613;48.392;9.998;2023-06-04T05:06:37;16.80;79.30
9157;DHT22;4613;48.392;9.998;2023-06-04T05:09:26;16.80;78.70
9157;DHT22;4613;48.392;9.998;2023-06-04T05:12:16;16.90;78.20
9157;DHT22;4613;48.392;9.998;2023-06-04T05:15:06;16.90;78.20
9157;DHT22;4613;48.392;9.998;2023-06-04T05:17:56;16.90;78.10
9157;DHT22;4613;48.392;9.998;2023-06-04T05:20:46;16.90;77.70
9157;DHT22;4613;48.392;9.998;2023-06-04T05:23:36;16.70;78.10
9157;DHT22;4613;48.392;9.998;2023-06-04T05:26:27;17.00;77.90
9157;DHT22;4613;48.392;9.998;2023-06-04T05:29:20;16.90;77.50
9157;DHT22;4613;48.392;9.998;2023-06-04T05:32:11;16.60;78.10
9157;DHT22;4613;48.392;9.998;2023-06-04T05:35:00;16.30;78.20
9157;DHT22;4613;48.392;9.998;2023-06-04T05:37:55;16.40;78.50
9157;DHT22;4613;48.392;9.998;2023-06-04T05:40:49;16.70;78.40
9157;DHT22;4613;48.392;9.998;2023-06-04T05:43:41;16.80;78.20
9157;DHT22;4613;48.392;9.998;2023-06-04T05:46:34;16.90;78.40
9157;DHT22;4613;48.392;9.998;2023-06-04T05:49:23;17.30;77.90
9157;DHT22;4613;48.392;9.998;2023-06-04T05:52:14;17.20;78.20
9157;DHT22;4613;48.392;9.998;2023-06-04T05:55:06;17.40;77.90
9157;DHT22;4613;48.392;9.998;2023-06-04T05:58:00;17.10;77.20
9157;DHT22;4613;48.392;9.998;2023-06-04T06:00:50;17.10;78.00
9157;DHT22;4613;48.392;9.998;2023-06-04T06:03:41;17.70;78.10
9157;DHT22;4613;48.392;9.998;2023-06-04T06:06:31;17.90;77.20
9157;DHT22;4613;48.392;9.998;2023-06-04T06:09:21;17.70;77.80
9157;DHT22;4613;48.392;9.998;2023-06-04T06:12:10;17.90;77.60
9157;DHT22;4613;48.392;9.998;2023-06-04T06:15:02;17.70;76.80
9157;DHT22;4613;48.392;9.998;2023-06-04T06:17:51;17.70;77.80
9157;DHT22;4613;48.392;9.998;2023-06-04T06:20:41;17.70;77.80
9157;DHT22;4613;48.392;9.998;2023-06-04T06:23:31;17.50;78.10
9157;DHT22;4613;48.392;9.998;2023-06-04T06:26:21;17.80;77.90
9157;DHT22;4613;48.392;9.998;2023-06-04T06:29:15;18.10;78.00
9157;DHT22;4613;48.392;9.998;2023-06-04T06:32:05;18.00;77.70
9157;DHT22;4613;48.392;9.998;2023-06-04T06:34:55;18.30;77.80
9157;DHT22;4613;48.392;9.998;2023-06-04T06:37:45;18.20;78.20
9157;DHT22;4613;48.392;9.998;2023-06-04T06:40:34;18.30;78.20
9157;DHT22;4613;48.392;9.998;2023-06-04T06:43:23;18.30;78.20
9157;DHT22;4613;48.392;9.998;2023-06-04T06:46:12;18.80;77.90
9157;DHT22;4613;48.392;9.998;2023-06-04T06:49:01;18.90;78.10
9157;DHT22;4613;48.392;9.998;2023-06-04T06:51:50;19.10;77.40
9157;DHT22;4613;48.392;9.998;2023-06-04T06:54:40;19.20;77.30
9157;DHT22;4613;48.392;9.998;2023-06-04T06:57:29;19.10;77.40
9157;DHT22;4613;48.392;9.998;2023-06-04T07:00:18;19.80;82.20
9157;DHT22;4613;48.392;9.998;2023-06-04T07:03:08;19.80;78.50
9157;DHT22;4613;48.392;9.998;2023-06-04T07:05:57;19.70;79.90
9157;DHT22;4613;48.392;9.998;2023-06-04T07:08:46;20.00;79.10
9157;DHT22;4613;48.392;9.998;2023-06-04T07:11:37;19.80;78.00
9157;DHT22;4613;48.392;9.998;2023-06-04T07:14:26;20.00;79.70
9157;DHT22;4613;48.392;9.998;2023-06-04T07:17:16;19.80;78.60
9157;DHT22;4613;48.392;9.998;2023-06-04T07:20:05;19.70;78.80
9157;DHT22;4613;48.392;9.998;2023-06-04T07:22:56;19.50;78.40
9157;DHT22;4613;48.392;9.998;2023-06-04T07:25:46;19.80;78.40
9157;DHT22;4613;48.392;9.998;2023-06-04T07:28:36;19.90;78.30
9157;DHT22;4613;48.392;9.998;2023-06-04T07:31:25;19.70;78.40
9157;DHT22;4613;48.392;9.998;2023-06-04T07:34:14;19.90;78.90
9157;DHT22;4613;48.392;9.998;2023-06-04T07:37:04;20.00;78.40
9157;DHT22;4613;48.392;9.998;2023-06-04T07:39:54;20.10;78.60
9157;DHT22;4613;48.392;9.998;2023-06-04T07:42:45;20.20;78.00
9157;DHT22;4613;48.392;9.998;2023-06-04T07:45:35;20.10;78.40
9157;DHT22;4613;48.392;9.998;2023-06-04T07:48:24;20.10;77.90
9157;DHT22;4613;48.392;9.998;2023-06-04T07:51:19;19.90;79.00
9157;DHT22;4613;48.392;9.998;2023-06-04T07:54:08;20.20;78.90
9157;DHT22;4613;48.392;9.998;2023-06-04T07:56:57;20.10;79.20
9157;DHT22;4613;48.392;9.998;2023-06-04T07:59:47;20.30;79.00
9157;DHT22;4613;48.392;9.998;2023-06-04T08:02:38;20.70;79.20
9157;DHT22;4613;48.392;9.998;2023-06-04T08:05:27;20.80;78.50
9157;DHT22;4613;48.392;9.998;2023-06-04T08:08:16;20.50;78.70
9157;DHT22;4613;48.392;9.998;2023-06-04T08:11:05;20.80;78.60
9157;DHT22;4613;48.392;9.998;2023-06-04T08:13:54;20.90;78.10
9157;DHT22;4613;48.392;9.998;2023-06-04T08:16:43;21.00;78.20
9157;DHT22;4613;48.392;9.998;2023-06-04T08:19:33;21.10;78.30
9157;DHT22;4613;48.392;9.998;2023-06-04T08:22:22;21.10;78.40
9157;DHT22;4613;48.392;9.998;2023-06-04T08:25:11;21.20;78.50
9157;DHT22;4613;48.392;9.998;2023-06-04T08:28:02;21.20;78.50
9157;DHT22;4613;48.392;9.998;2023-06-04T08:30:51;21.20;78.80
9157;DHT22;4613;48.392;9.998;2023-06-04T08:33:41;21.00;78.90
9157;DHT22;4613;48.392;9.998;2023-06-04T08:36:30;21.00;78.10
9157;DHT22;4613;48.392;9.998;2023-06-04T08:39:22;21.10;78.30
9157;DHT22;4613;48.392;9.998;2023-06-04T08:42:22;21.40;78.40
9157;DHT22;4613;48.392;9.998;2023-06-04T08:45:17;21.50;78.10
9157;DHT22;4613;48.392;9.998;2023-06-04T08:48:10;21.80;78.20
9157;DHT22;4613;48.392;9.998;2023-06-04T08:51:03;22.10;78.20
9157;DHT22;4613;48.392;9.998;2023-06-04T08:53:54;22.20;77.70
9157;DHT22;4613;48.392;9.998;2023-06-04T08:56:46;22.20;77.10
9157;DHT22;4613;48.392;9.998;2023-06-04T08:59:37;22.20;77.30
9157;DHT22;4613;48.392;9.998;2023-06-04T09:02:27;22.00;77.30
9157;DHT22;4613;48.392;9.998;2023-06-04T09:05:20;22.30;77.50
9157;DHT22;4613;48.392;9.998;2023-06-04T09:08:11;22.20;76.80
9157;DHT22;4613;48.392;9.998;2023-06-04T09:11:05;22.10;77.20
9157;DHT22;4613;48.392;9.998;2023-06-04T09:13:59;21.80;78.20
9157;DHT22;4613;48.392;9.998;2023-06-04T09:16:52;22.00;78.10
9157;DHT22;4613;48.392;9.998;2023-06-04T09:19:42;21.80;76.70
9157;DHT22;4613;48.392;9.998;2023-06-04T09:22:33;22.30;77.00
9157;DHT22;4613;48.392;9.998;2023-06-04T09:25:24;22.50;76.50
9157;DHT22;4613;48.392;9.998;2023-06-04T09:28:14;22.30;77.00
9157;DHT22;4613;48.392;9.998;2023-06-04T09:31:03;22.40;76.70
9157;DHT22;4613;48.392;9.998;2023-06-04T09:33:52;22.70;76.70
9157;DHT22;4613;48.392;9.998;2023-06-04T09:36:42;22.70;75.90
9157;DHT22;4613;48.392;9.998;2023-06-04T09:39:31;22.80;75.90
9157;DHT22;4613;48.392;9.998;2023-06-04T09:42:21;22.60;77.10
9157;DHT22;4613;48.392;9.998;2023-06-04T09:45:12;22.40;77.10
9157;DHT22;4613;48.392;9.998;2023-06-04T09:48:02;22.60;77.10
9157;DHT22;4613;48.392;9.998;2023-06-04T09:50:51;22.70;77.60
9157;DHT22;4613;48.392;9.998;2023-06-04T09:53:41;22.80;80.30
9157;DHT22;4613;48.392;9.998;2023-06-04T09:56:39;23.00;78.20
9157;DHT22;4613;48.392;9.998;2023-06-04T09:59:30;22.80;78.60
9157;DHT22;4613;48.392;9.998;2023-06-04T10:02:22;22.90;78.40
9157;DHT22;4613;48.392;9.998;2023-06-04T10:05:11;23.00;80.30
9157;DHT22;4613;48.392;9.998;2023-06-04T10:08:04;23.00;77.20
9157;DHT22;4613;48.392;9.998;2023-06-04T10:11:01;23.10;78.00
9157;DHT22;4613;48.392;9.998;2023-06-04T10:13:53;23.10;76.60
9157;DHT22;4613;48.392;9.998;2023-06-04T10:16:45;23.20;76.00
9157;DHT22;4613;48.392;9.998;2023-06-04T10:19:38;23.40;76.70
9157;DHT22;4613;48.392;9.998;2023-06-04T10:22:29;23.30;75.20
9157;DHT22;4613;48.392;9.998;2023-06-04T10:25:19;23.10;77.00
9157;DHT22;4613;48.392;9.998;2023-06-04T10:28:09;23.30;77.00
9157;DHT22;4613;48.392;9.998;2023-06-04T10:30:59;23.40;80.10
9157;DHT22;4613;48.392;9.998;2023-06-04T10:33:53;23.50;75.70
9157;DHT22;4613;48.392;9.998;2023-06-04T10:36:44;23.70;78.50
9157;DHT22;4613;48.392;9.998;2023-06-04T10:39:34;23.40;80.80
9157;DHT22;4613;48.392;9.998;2023-06-04T10:42:25;23.60;76.60
9157;DHT22;4613;48.392;9.998;2023-06-04T10:45:14;23.30;74.70
9157;DHT22;4613;48.392;9.998;2023-06-04T10:48:05;23.60;74.90
9157;DHT22;4613;48.392;9.998;2023-06-04T10:50:55;23.60;76.60
9157;DHT22;4613;48.392;9.998;2023-06-04T10:53:45;23.50;76.30
9157;DHT22;4613;48.392;9.998;2023-06-04T10:56:35;23.50;73.70
9157;DHT22;4613;48.392;9.998;2023-06-04T10:59:25;23.40;75.50
9157;DHT22;4613;48.392;9.998;2023-06-04T11:02:15;23.60;76.60
9157;DHT22;4613;48.392;9.998;2023-06-04T11:05:08;23.40;75.80
9157;DHT22;4613;48.392;9.998;2023-06-04T11:07:59;23.60;75.00
9157;DHT22;4613;48.392;9.998;2023-06-04T11:10:48;23.50;73.40
9157;DHT22;4613;48.392;9.998;2023-06-04T11:13:37;23.30;73.10
9157;DHT22;4613;48.392;9.998;2023-06-04T11:16:27;23.50;73.80
9157;DHT22;4613;48.392;9.998;2023-06-04T11:19:16;23.70;73.50
9157;DHT22;4613;48.392;9.998;2023-06-04T11:22:05;24.10;74.70
9157;DHT22;4613;48.392;9.998;2023-06-04T11:24:57;24.10;74.30
9157;DHT22;4613;48.392;9.998;2023-06-04T11:27:53;24.10;73.60
9157;DHT22;4613;48.392;9.998;2023-06-04T11:30:43;24.00;73.80
9157;DHT22;4613;48.392;9.998;2023-06-04T11:33:45;23.90;72.00
9157;DHT22;4613;48.392;9.998;2023-06-04T11:36:35;24.10;73.60
9157;DHT22;4613;48.392;9.998;2023-06-04T11:39:34;24.30;73.40
9157;DHT22;4613;48.392;9.998;2023-06-04T11:42:24;23.80;71.50
9157;DHT22;4613;48.392;9.998;2023-06-04T11:45:15;23.40;71.40
9157;DHT22;4613;48.392;9.998;2023-06-04T11:48:05;23.00;72.20
9157;DHT22;4613;48.392;9.998;2023-06-04T11:50:54;23.10;72.20
9157;DHT22;4613;48.392;9.998;2023-06-04T11:53:44;23.70;72.10
9157;DHT22;4613;48.392;9.998;2023-06-04T11:56:34;23.80;71.90
9157;DHT22;4613;48.392;9.998;2023-06-04T11:59:24;23.60;71.90
9157;DHT22;4613;48.392;9.998;2023-06-04T12:02:14;23.90;72.00
9157;DHT22;4613;48.392;9.998;2023-06-04T12:05:14;24.00;71.30
9157;DHT22;4613;48.392;9.998;2023-06-04T12:08:05;24.20;71.30
9157;DHT22;4613;48.392;9.998;2023-06-04T12:10:55;24.10;70.80
9157;DHT22;4613;48.392;9.998;2023-06-04T12:13:44;24.20;70.40
9157;DHT22;4613;48.392;9.998;2023-06-04T12:16:34;24.00;69.70
9157;DHT22;4613;48.392;9.998;2023-06-04T12:19:24;24.00;70.20
9157;DHT22;4613;48.392;9.998;2023-06-04T12:22:13;23.80;70.80
9157;DHT22;4613;48.392;9.998;2023-06-04T12:25:02;24.00;70.70
9157;DHT22;4613;48.392;9.998;2023-06-04T12:27:53;23.90;70.50
9157;DHT22;4613;48.392;9.998;2023-06-04T12:30:43;24.00;70.70
9157;DHT22;4613;48.392;9.998;2023-06-04T12:33:32;24.00;70.60
9157;DHT22;4613;48.392;9.998;2023-06-04T12:36:22;24.10;70.30
9157;DHT22;4613;48.392;9.998;2023-06-04T12:39:11;23.90;69.70
9157;DHT22;4613;48.392;9.998;2023-06-04T12:42:00;23.80;69.60
9157;DHT22;4613;48.392;9.998;2023-06-04T12:44:49;23.50;69.00
9157;DHT22;4613;48.392;9.998;2023-06-04T12:47:39;23.60;69.40
9157;DHT22;4613;48.392;9.998;2023-06-04T12:50:29;23.80;69.90
9157;DHT22;4613;48.392;9.998;2023-06-04T12:53:18;23.80;69.60
9157;DHT22;4613;48.392;9.998;2023-06-04T12:56:08;23.90;69.70
9157;DHT22;4613;48.392;9.998;2023-06-04T12:58:59;23.30;68.70
9157;DHT22;4613;48.392;9.998;2023-06-04T13:01:49;23.50;70.20
9157;DHT22;4613;48.392;9.998;2023-06-04T13:04:38;23.90;70.40
9157;DHT22;4613;48.392;9.998;2023-06-04T13:07:27;23.70;69.70
9157;DHT22;4613;48.392;9.998;2023-06-04T13:10:17;23.40;69.10
9157;DHT22;4613;48.392;9.998;2023-06-04T13:13:06;23.40;68.90
9157;DHT22;4613;48.392;9.998;2023-06-04T13:15:56;23.90;69.20
9157;DHT22;4613;48.392;9.998;2023-06-04T13:18:46;23.80;71.30
9157;DHT22;4613;48.392;9.998;2023-06-04T13:21:36;23.80;70.00
9157;DHT22;4613;48.392;9.998;2023-06-04T13:24:25;23.90;72.50
9157;DHT22;4613;48.392;9.998;2023-06-04T13:27:14;23.90;71.80
9157;DHT22;4613;48.392;9.998;2023-06-04T13:30:05;24.00;71.70
9157;DHT22;4613;48.392;9.998;2023-06-04T13:32:55;24.00;71.70
9157;DHT22;4613;48.392;9.998;2023-06-04T13:35:44;24.00;71.10
9157;DHT22;4613;48.392;9.998;2023-06-04T13:38:34;23.90;70.50
9157;DHT22;4613;48.392;9.998;2023-06-04T13:41:24;24.00;70.70
9157;DHT22;4613;48.392;9.998;2023-06-04T13:44:13;24.00;69.80
9157;DHT22;4613;48.392;9.998;2023-06-04T13:47:03;24.30;71.30
9157;DHT22;4613;48.392;9.998;2023-06-04T13:49:53;24.00;69.20
9157;DHT22;4613;48.392;9.998;2023-06-04T13:52:43;24.00;69.90
9157;DHT22;4613;48.392;9.998;2023-06-04T13:55:32;24.00;70.20
9157;DHT22;4613;48.392;9.998;2023-06-04T13:58:22;24.10;70.80
9157;DHT22;4613;48.392;9.998;2023-06-04T14:01:11;24.10;70.20
9157;DHT22;4613;48.392;9.998;2023-06-04T14:04:00;24.10;69.10
9157;DHT22;4613;48.392;9.998;2023-06-04T14:06:49;23.80;70.70
9157;DHT22;4613;48.392;9.998;2023-06-04T14:09:39;23.70;69.30
9157;DHT22;4613;48.392;9.998;2023-06-04T14:12:29;23.40;69.00
9157;DHT22;4613;48.392;9.998;2023-06-04T14:15:18;22.90;68.80
9157;DHT22;4613;48.392;9.998;2023-06-04T14:18:07;23.30;72.00
9157;DHT22;4613;48.392;9.998;2023-06-04T14:20:57;23.70;69.40
9157;DHT22;4613;48.392;9.998;2023-06-04T14:23:46;23.90;68.80
9157;DHT22;4613;48.392;9.998;2023-06-04T14:26:35;23.90;68.80
9157;DHT22;4613;48.392;9.998;2023-06-04T14:29:25;23.90;69.50
9157;DHT22;4613;48.392;9.998;2023-06-04T14:32:14;23.90;69.00
9157;DHT22;4613;48.392;9.998;2023-06-04T14:35:04;24.10;69.10
9157;DHT22;4613;48.392;9.998;2023-06-04T14:37:54;23.90;69.30
9157;DHT22;4613;48.392;9.998;2023-06-04T14:40:43;23.70;70.20
9157;DHT22;4613;48.392;9.998;2023-06-04T14:43:33;23.90;69.30
9157;DHT22;4613;48.392;9.998;2023-06-04T14:46:23;24.20;68.60
9157;DHT22;4613;48.392;9.998;2023-06-04T14:49:13;24.30;69.30
9157;DHT22;4613;48.392;9.998;2023-06-04T14:52:02;24.00;68.30
9157;DHT22;4613;48.392;9.998;2023-06-04T14:54:52;23.90;68.10
9157;DHT22;4613;48.392;9.998;2023-06-04T14:57:41;24.00;70.30
9157;DHT22;4613;48.392;9.998;2023-06-04T15:00:30;24.10;69.10
9157;DHT22;4613;48.392;9.998;2023-06-04T15:03:19;24.00;68.50
9157;DHT22;4613;48.392;9.998;2023-06-04T15:06:09;24.00;67.90
9157;DHT22;4613;48.392;9.998;2023-06-04T15:08:59;24.30;68.90
9157;DHT22;4613;48.392;9.998;2023-06-04T15:11:48;24.00;68.00
9157;DHT22;4613;48.392;9.998;2023-06-04T15:14:37;24.10;67.60
9157;DHT22;4613;48.392;9.998;2023-06-04T15:17:27;23.70;68.40
9157;DHT22;4613;48.392;9.998;2023-06-04T15:20:16;23.80;67.70
9157;DHT22;4613;48.392;9.998;2023-06-04T15:23:05;23.80;66.90
9157;DHT22;4613;48.392;9.998;2023-06-04T15:25:55;23.80;66.70
9157;DHT22;4613;48.392;9.998;2023-06-04T15:28:44;23.80;67.80
9157;DHT22;4613;48.392;9.998;2023-06-04T15:31:33;24.00;67.90
9157;DHT22;4613;48.392;9.998;2023-06-04T15:34:23;23.90;67.50
9157;DHT22;4613;48.392;9.998;2023-06-04T15:37:13;24.00;67.50
9157;DHT22;4613;48.392;9.998;2023-06-04T15:40:03;23.80;67.00
9157;DHT22;4613;48.392;9.998;2023-06-04T15:42:55;23.90;67.50
9157;DHT22;4613;48.392;9.998;2023-06-04T15:45:44;24.00;67.30
9157;DHT22;4613;48.392;9.998;2023-06-04T15:48:34;24.00;68.40
9157;DHT22;4613;48.392;9.998;2023-06-04T15:51:24;23.90;67.20
9157;DHT22;4613;48.392;9.998;2023-06-04T15:54:14;23.90;67.80
9157;DHT22;4613;48.392;9.998;2023-06-04T15:57:04;24.00;66.80
9157;DHT22;4613;48.392;9.998;2023-06-04T15:59:53;24.00;68.60
9157;DHT22;4613;48.392;9.998;2023-06-04T16:02:42;23.90;66.60
9157;DHT22;4613;48.392;9.998;2023-06-04T16:05:31;23.90;67.00
9157;DHT22;4613;48.392;9.998;2023-06-04T16:08:20;24.10;66.90
9157;DHT22;4613;48.392;9.998;2023-06-04T16:11:10;24.00;66.30
9157;DHT22;4613;48.392;9.998;2023-06-04T16:13:59;23.90;65.30
9157;DHT22;4613;48.392;9.998;2023-06-04T16:16:48;24.10;66.00
9157;DHT22;4613;48.392;9.998;2023-06-04T16:19:37;24.10;64.00
9157;DHT22;4613;48.392;9.998;2023-06-04T16:22:27;23.90;64.70
9157;DHT22;4613;48.392;9.998;2023-06-04T16:25:16;23.90;65.40
9157;DHT22;4613;48.392;9.998;2023-06-04T16:28:06;23.80;65.80
9157;DHT22;4613;48.392;9.998;2023-06-04T16:30:56;23.90;65.40
9157;DHT22;4613;48.392;9.998;2023-06-04T16:33:46;23.90;65.10
9157;DHT22;4613;48.392;9.998;2023-06-04T16:36:36;23.80;64.40
9157;DHT22;4613;48.392;9.998;2023-06-04T16:39:25;23.90;65.50
9157;DHT22;4613;48.392;9.998;2023-06-04T16:42:15;23.80;65.80
9157;DHT22;4613;48.392;9.998;2023-06-04T16:45:06;23.80;65.40
9157;DHT22;4613;48.392;9.998;2023-06-04T16:47:55;23.80;66.20
9157;DHT22;4613;48.392;9.998;2023-06-04T16:50:45;23.80;65.40
9157;DHT22;4613;48.392;9.998;2023-06-04T16:53:34;23.80;66.40
9157;DHT22;4613;48.392;9.998;2023-06-04T16:56:24;23.80;66.60
9157;DHT22;4613;48.392;9.998;2023-06-04T16:59:14;23.70;66.10
9157;DHT22;4613;48.392;9.998;2023-06-04T17:02:03;23.70;65.70
9157;DHT22;4613;48.392;9.998;2023-06-04T17:04:53;23.70;64.80
9157;DHT22;4613;48.392;9.998;2023-06-04T17:07:46;23.60;65.90
9157;DHT22;4613;48.392;9.998;2023-06-04T17:10:36;23.50;64.70
9157;DHT22;4613;48.392;9.998;2023-06-04T17:13:26;23.30;65.90
9157;DHT22;4613;48.392;9.998;2023-06-04T17:16:15;23.40;66.00
9157;DHT22;4613;48.392;9.998;2023-06-04T17:19:05;23.50;65.50
9157;DHT22;4613;48.392;9.998;2023-06-04T17:21:55;23.50;65.50
9157;DHT22;4613;48.392;9.998;2023-06-04T17:24:45;23.40;65.60
9157;DHT22;4613;48.392;9.998;2023-06-04T17:27:34;23.40;66.40
9157;DHT22;4613;48.392;9.998;2023-06-04T17:30:23;23.40;67.60
9157;DHT22;4613;48.392;9.998;2023-06-04T17:33:14;23.40;66.90
9157;DHT22;4613;48.392;9.998;2023-06-04T17:36:04;23.30;66.90
9157;DHT22;4613;48.392;9.998;2023-06-04T17:38:53;23.20;65.80
9157;DHT22;4613;48.392;9.998;2023-06-04T17:41:43;23.10;67.00
9157;DHT22;4613;48.392;9.998;2023-06-04T17:44:32;23.10;67.20
9157;DHT22;4613;48.392;9.998;2023-06-04T17:47:21;23.10;67.10
9157;DHT22;4613;48.392;9.998;2023-06-04T17:50:10;23.10;67.50
9157;DHT22;4613;48.392;9.998;2023-06-04T17:53:00;23.00;67.50
9157;DHT22;4613;48.392;9.998;2023-06-04T17:55:50;22.90;66.50
9157;DHT22;4613;48.392;9.998;2023-06-04T17:58:39;22.80;67.20
9157;DHT22;4613;48.392;9.998;2023-06-04T18:01:28;22.70;67.10
9157;DHT22;4613;48.392;9.998;2023-06-04T18:04:17;22.70;66.70
9157;DHT22;4613;48.392;9.998;2023-06-04T18:07:07;22.70;67.70
9157;DHT22;4613;48.392;9.998;2023-06-04T18:09:56;22.70;67.50
9157;DHT22;4613;48.392;9.998;2023-06-04T18:12:46;22.70;67.00
9157;DHT22;4613;48.392;9.998;2023-06-04T18:15:36;22.60;68.50
9157;DHT22;4613;48.392;9.998;2023-06-04T18:18:25;22.70;68.00
9157;DHT22;4613;48.392;9.998;2023-06-04T18:21:15;22.80;68.70
9157;DHT22;4613;48.392;9.998;2023-06-04T18:24:04;22.70;69.10
9157;DHT22;4613;48.392;9.998;2023-06-04T18:26:54;22.70;68.70
9157;DHT22;4613;48.392;9.998;2023-06-04T18:29:44;22.60;69.40
9157;DHT22;4613;48.392;9.998;2023-06-04T18:32:35;22.60;69.60